Wild Rice, North Dakota
Current Conditions -  °F | °C
As of 10:12 AM on Monday 26 Jan 2015 (Local Time) from KJKJ Reporting Station
Clear Clear  
Wind Chill: -1°   Ceiling: Unl
Heat Index:   Visibility: 10mi
Dew Point:   Wind: 16mph
Humidity: 87%   Direction: 320°NW
Pressure: 29.76"   Gusts: NA
Location:  46.7039°N, 96.8572°W
Report Text: KJKJ 261612Z AUTO 32014KT 10SM CLR 04/02 A2976 RMK AO2
Loading
Personal Weather Stations






























Interactive Weather Map New forecast layout! Learn more

10-Day Weather Forecast

Advertisements
Track Severe Weather on mobile